createdAt,value
2018-09-11T00:00:46.990Z,97693.75
2018-09-11T00:03:17.038Z,97695.45
2018-09-11T00:05:46.970Z,97705.70
2018-09-11T00:08:17.010Z,97703.12
2018-09-11T00:10:47.054Z,97706.97
2018-09-11T00:13:17.008Z,97702.27
2018-09-11T00:15:46.094Z,97697.15
2018-09-11T00:18:15.217Z,97688.19
2018-09-11T00:20:44.382Z,97684.36
2018-09-11T00:23:13.517Z,97683.50
2018-09-11T00:25:42.590Z,97678.39
2018-09-11T00:28:11.642Z,97681.80
2018-09-11T00:30:40.802Z,97687.77
2018-09-11T00:33:11.266Z,97681.80
2018-09-11T00:35:40.318Z,97681.38
2018-09-11T00:38:09.435Z,97680.09
2018-09-11T00:40:38.555Z,97672.83
2018-09-11T00:43:07.687Z,97667.70
2018-09-11T00:45:36.756Z,97669.00
2018-09-11T00:48:05.844Z,97667.73
2018-09-11T00:50:34.953Z,97668.17
2018-09-11T00:53:04.080Z,97677.55
2018-09-11T00:55:33.151Z,97681.81
2018-09-11T00:58:02.279Z,97685.65
2018-09-11T01:00:31.384Z,97680.53
2018-09-11T01:03:00.503Z,97680.08
2018-09-11T01:05:29.686Z,97682.65
2018-09-11T01:07:58.835Z,97681.38
2018-09-11T01:10:27.941Z,97681.80
2018-09-11T01:12:57.022Z,97678.38
2018-09-11T01:15:26.108Z,97679.23
2018-09-11T01:17:55.218Z,97685.22
2018-09-11T01:20:24.330Z,97689.05
2018-09-11T01:22:53.453Z,97692.03
2018-09-11T01:25:22.578Z,97699.27
2018-09-11T01:27:51.702Z,97695.44
2018-09-11T01:30:22.174Z,97698.00
2018-09-11T01:32:52.300Z,97703.95
2018-09-11T01:35:22.190Z,97710.76
2018-09-11T01:37:51.312Z,97709.48
2018-09-11T01:40:20.467Z,97709.90
2018-09-11T01:42:49.567Z,97706.52
2018-09-11T01:45:18.717Z,97700.09
2018-09-11T01:47:48.534Z,97705.66
2018-09-11T01:50:18.467Z,97703.93
2018-09-11T01:52:48.621Z,97699.65
2018-09-11T01:55:18.587Z,97703.91
2018-09-11T01:57:48.539Z,97692.40
2018-09-11T02:00:20.747Z,97691.54
2018-09-11T02:02:49.891Z,97695.38
2018-09-11T02:05:19.019Z,97696.66
2018-09-11T02:07:49.061Z,97689.40
2018-09-11T02:10:18.587Z,97692.78
2018-09-11T02:12:48.817Z,97688.47
2018-09-11T02:15:18.925Z,97693.66
2018-09-11T02:17:48.738Z,97690.23
2018-09-11T02:20:18.911Z,97695.31
2018-09-11T02:22:48.811Z,97695.28
2018-09-11T02:25:18.713Z,97691.03
2018-09-11T02:27:48.831Z,97692.72
2018-09-11T02:30:19.076Z,97687.61
2018-09-11T02:32:48.885Z,97692.72
2018-09-11T02:35:18.769Z,97690.17
2018-09-11T02:37:48.982Z,97680.77
2018-09-11T02:40:19.156Z,97688.03
2018-09-11T02:42:48.950Z,97688.44
2018-09-11T02:45:22.925Z,97685.89
2018-09-11T02:47:53.257Z,97694.38
2018-09-11T02:50:22.435Z,97692.24
2018-09-11T02:52:51.567Z,97696.08
2018-09-11T02:55:20.625Z,97702.47
2018-09-11T02:57:49.705Z,97710.58
2018-09-11T03:00:19.168Z,97714.00
2018-09-11T03:02:49.078Z,97684.95
2018-09-11T03:05:19.189Z,97699.45
2018-09-11T03:07:49.104Z,97701.19
2018-09-11T03:10:19.245Z,97708.81
2018-09-11T03:12:49.143Z,97708.81
2018-09-11T03:15:19.257Z,97706.25
2018-09-11T03:17:49.181Z,97713.92
2018-09-11T03:20:19.298Z,97719.91
2018-09-11T03:22:49.242Z,97719.91
2018-09-11T03:25:19.225Z,97722.45
2018-09-11T03:27:48.314Z,97719.45
2018-09-11T03:30:17.418Z,97722.45
2018-09-11T03:32:46.437Z,97720.72
2018-09-11T03:35:15.543Z,97722.82
2018-09-11T03:37:44.605Z,97720.67
2018-09-11T03:40:13.677Z,97722.36
2018-09-11T03:42:42.839Z,97727.02
2018-09-11T03:45:12.141Z,97722.30
2018-09-11T03:47:41.357Z,97720.56
2018-09-11T03:50:10.415Z,97725.66
2018-09-11T03:52:39.609Z,97723.92
2018-09-11T03:55:08.777Z,97726.48
2018-09-11T03:57:37.819Z,97722.23
2018-09-11T04:00:06.971Z,97725.61
2018-09-11T04:02:36.071Z,97731.13
2018-09-11T04:05:05.169Z,97731.53
2018-09-11T04:07:34.298Z,97738.77
2018-09-11T04:10:03.402Z,97740.87
2018-09-11T04:12:32.557Z,97742.14
2018-09-11T04:15:01.740Z,97741.73
2018-09-11T04:17:37.343Z,97746.38
2018-09-11T04:20:06.539Z,97747.66
2018-09-11T04:22:35.697Z,97752.75
2018-09-11T04:25:04.790Z,97752.73
2018-09-11T04:27:34.186Z,97754.83
2018-09-11T04:30:03.331Z,97755.65
2018-09-11T04:32:32.387Z,97756.09
2018-09-11T04:35:01.434Z,97756.91
2018-09-11T04:37:30.533Z,97756.48
2018-09-11T04:39:59.734Z,97762.88
2018-09-11T04:42:28.778Z,97765.42
2018-09-11T04:44:57.889Z,97773.09
2018-09-11T04:47:27.008Z,97773.89
2018-09-11T04:49:56.136Z,97773.89
2018-09-11T04:52:25.193Z,97780.66
2018-09-11T04:54:54.259Z,97778.02
2018-09-11T04:57:23.302Z,97783.16
2018-09-11T04:59:52.447Z,97772.92
2018-09-11T05:02:21.787Z,97780.56
2018-09-11T05:04:50.842Z,97778.00
2018-09-11T05:07:20.327Z,97777.98
2018-09-11T05:09:50.221Z,97783.08
2018-09-11T05:12:20.186Z,97789.88
2018-09-11T05:14:49.245Z,97786.48
2018-09-11T05:17:18.316Z,97793.31
2018-09-11T05:19:47.378Z,97798.41
2018-09-11T05:22:16.438Z,97800.09
2018-09-11T05:24:45.537Z,97801.38
2018-09-11T05:27:14.767Z,97802.71
2018-09-11T05:29:43.773Z,97803.63
2018-09-11T05:32:13.334Z,97809.21
2018-09-11T05:34:42.728Z,97808.77
2018-09-11T05:37:11.823Z,97813.93
2018-09-11T05:39:40.998Z,97811.80
2018-09-11T05:42:10.138Z,97818.65
2018-09-11T05:44:39.209Z,97819.92
2018-09-11T05:47:08.290Z,97820.34
2018-09-11T05:49:38.104Z,97820.34
2018-09-11T05:52:07.570Z,97822.48
2018-09-11T05:54:36.664Z,97820.34
2018-09-11T05:57:06.462Z,97822.95
2018-09-11T05:59:35.946Z,97818.25
2018-09-11T06:02:05.047Z,97816.57
2018-09-11T06:04:34.076Z,97812.33
2018-09-11T06:07:03.096Z,97820.42
2018-09-11T06:09:32.195Z,97827.67
2018-09-11T06:12:01.274Z,97819.20
2018-09-11T06:14:30.330Z,97827.70
2018-09-11T06:16:59.467Z,97826.89
2018-09-11T06:19:28.571Z,97823.52
2018-09-11T06:21:57.628Z,97823.53
2018-09-11T06:24:26.725Z,97832.94
2018-09-11T06:26:55.869Z,97828.70
2018-09-11T06:29:24.948Z,97838.98
2018-09-11T06:31:54.093Z,97834.29
2018-09-11T06:34:23.336Z,97831.34
2018-09-11T06:36:52.427Z,97840.76
2018-09-11T06:39:21.518Z,97845.06
2018-09-11T06:41:51.301Z,97849.36
2018-09-11T06:44:21.237Z,97843.44
2018-09-11T06:46:51.365Z,97841.81
2018-09-11T06:49:21.349Z,97835.02
2018-09-11T06:51:51.254Z,97841.88
2018-09-11T06:54:21.291Z,97843.24
2018-09-11T07:17:38.608Z,97842.28
2018-09-11T07:20:09.967Z,97839.77
2018-09-11T07:22:39.054Z,97850.02
2018-09-11T07:25:08.689Z,97845.77
2018-09-11T07:27:37.888Z,97849.16
2018-09-11T07:30:07.490Z,97846.61
2018-09-11T07:32:41.110Z,97838.89
2018-09-11T07:35:10.700Z,97838.88
2018-09-11T07:37:40.133Z,97844.00
2018-09-11T07:43:13.751Z,97844.80
2018-09-11T07:45:42.920Z,97847.29
2018-09-11T07:48:12.490Z,97844.67
2018-09-11T07:50:41.812Z,97845.45
2018-09-11T07:53:11.501Z,97847.55
2018-09-11T07:55:40.786Z,97851.75
2018-09-11T07:58:11.146Z,97855.58
2018-09-11T08:00:41.964Z,97855.52
2018-09-11T08:03:11.876Z,97855.09
2018-09-11T08:05:41.084Z,97858.89
2018-09-11T08:08:10.653Z,97859.61
2018-09-11T08:10:40.842Z,97865.48
2018-09-11T08:13:11.217Z,97864.52
2018-09-11T08:15:40.487Z,97867.81
2018-09-11T08:18:12.197Z,97863.80
2018-09-11T08:20:41.345Z,97861.13
2018-09-11T08:23:10.861Z,97863.23
2018-09-11T08:25:40.860Z,97868.31
2018-09-11T08:28:10.409Z,97861.39
2018-09-11T08:30:39.717Z,97861.73
2018-09-11T08:33:09.326Z,97857.77
2018-09-11T08:35:40.498Z,97860.71
2018-09-11T08:38:10.203Z,97859.29
2018-09-11T08:40:39.409Z,97861.75
2018-09-11T08:56:13.321Z,97861.64
2018-09-11T08:58:42.695Z,97856.52
2018-09-11T09:01:11.718Z,97853.03
2018-09-11T09:03:40.957Z,97860.31
2018-09-11T09:06:10.557Z,97856.84
2018-09-11T09:08:39.808Z,97851.17
2018-09-11T09:11:09.656Z,97852.83
2018-09-11T09:13:38.923Z,97856.12
2018-09-11T09:16:08.148Z,97861.13
2018-09-11T09:18:37.284Z,97851.45
2018-09-11T09:21:06.852Z,97849.14
2018-09-11T09:23:36.086Z,97847.66
2018-09-11T09:26:05.604Z,97848.34
2018-09-11T09:28:34.962Z,97841.36
2018-09-11T09:31:04.554Z,97840.30
2018-09-11T09:33:33.765Z,97838.42
2018-09-11T09:36:03.307Z,97834.09
2018-09-11T09:38:32.496Z,97835.84
2018-09-11T09:41:02.041Z,97831.50
2018-09-11T09:43:31.216Z,97831.32
2018-09-11T09:46:00.721Z,97826.05
2018-09-11T09:48:29.928Z,97826.25
2018-09-11T09:50:59.204Z,97823.08
2018-09-11T09:53:28.423Z,97822.02
2018-09-11T09:55:57.605Z,97824.52
2018-09-11T09:58:26.829Z,97822.45
2018-09-11T10:00:59.052Z,97816.14
2018-09-11T10:03:28.217Z,97817.01
2018-09-11T10:05:57.459Z,97819.94
2018-09-11T10:08:26.636Z,97815.95
2018-09-11T10:10:57.685Z,97812.81
2018-09-11T10:13:26.852Z,97811.41
2018-09-11T10:15:56.029Z,97813.77
2018-09-11T10:18:25.198Z,97811.72
2018-09-11T10:20:54.363Z,97809.73
2018-09-11T10:23:23.583Z,97802.31
2018-09-11T10:25:53.642Z,97809.52
2018-09-11T10:43:55.281Z,97783.90
2018-09-11T10:46:25.116Z,97780.20
2018-09-11T10:48:54.768Z,97778.22
2018-09-11T10:51:24.334Z,97779.97
2018-09-11T10:53:53.805Z,97778.62
2018-09-11T11:54:07.144Z,97741.71
2018-09-11T11:56:36.616Z,97741.44
2018-09-11T11:59:06.501Z,97740.03
2018-09-11T12:01:36.286Z,97745.11
2018-09-11T12:04:06.157Z,97741.62
2018-09-11T12:06:35.592Z,97740.96
2018-09-11T12:09:08.348Z,97735.71
2018-09-11T12:11:37.676Z,97738.99
2018-09-11T12:14:07.364Z,97737.31
2018-09-11T12:19:21.615Z,97734.20
2018-09-11T12:21:50.890Z,97730.30
2018-09-11T12:24:22.914Z,97724.39
2018-09-11T12:26:52.463Z,97721.21
2018-09-11T12:29:22.151Z,97726.34
2018-09-11T12:31:51.301Z,97716.05
2018-09-11T12:34:21.084Z,97718.55
2018-09-11T12:36:52.458Z,97722.33
2018-09-11T12:39:22.183Z,97721.03
2018-09-11T12:41:51.436Z,97719.81
2018-09-11T12:44:20.982Z,97717.76
2018-09-11T12:46:50.235Z,97721.53
2018-09-11T12:49:19.827Z,97721.21
2018-09-11T12:51:51.540Z,97711.93
2018-09-11T12:54:22.839Z,97700.02
2018-09-11T12:56:53.813Z,97699.38
2018-09-11T12:59:23.035Z,97706.30
2018-09-11T13:01:52.243Z,97698.30
2018-09-11T13:04:23.510Z,97691.55
2018-09-11T13:06:52.662Z,97693.64
2018-09-11T13:09:22.174Z,97688.03
2018-09-11T13:11:52.213Z,97687.91
2018-09-11T13:14:21.748Z,97693.67
2018-09-11T13:16:50.947Z,97695.80
2018-09-11T13:19:21.969Z,97689.70
2018-09-11T13:21:51.162Z,97689.23
2018-09-11T13:24:20.368Z,97690.38
2018-09-11T13:26:49.627Z,97690.52
2018-09-11T13:29:19.257Z,97686.02
2018-09-11T13:31:48.437Z,97685.78
2018-09-11T13:34:20.600Z,97677.98
2018-09-11T13:36:51.538Z,97673.27
2018-09-11T13:39:21.077Z,97677.75
2018-09-11T13:41:50.281Z,97666.59
2018-09-11T13:44:19.433Z,97675.91
2018-09-11T13:46:48.721Z,97669.27
2018-09-11T13:49:20.127Z,97673.88
2018-09-11T13:51:51.274Z,97671.20
2018-09-11T13:54:20.866Z,97670.78
2018-09-11T13:56:50.036Z,97665.19
2018-09-11T13:59:19.744Z,97664.66
2018-09-11T14:01:49.042Z,97665.03
2018-09-11T14:04:18.634Z,97656.70
2018-09-11T14:06:47.847Z,97655.14
2018-09-11T14:09:17.369Z,97649.23
2018-09-11T14:11:46.523Z,97646.84
2018-09-11T14:14:15.996Z,97646.23
2018-09-11T14:16:45.207Z,97644.94
2018-09-11T14:19:15.118Z,97642.28
2018-09-11T14:21:44.517Z,97639.77
2018-09-11T14:24:14.875Z,97643.96
2018-09-11T14:26:44.614Z,97643.28
2018-09-11T14:29:14.274Z,97634.92
2018-09-11T14:31:43.427Z,97639.30
2018-09-11T14:34:12.957Z,97639.17
2018-09-11T14:36:42.161Z,97633.68
2018-09-11T14:39:12.304Z,97635.97
2018-09-11T14:41:41.504Z,97630.54
2018-09-11T14:44:11.024Z,97622.91
2018-09-11T14:46:40.220Z,97631.95
2018-09-11T14:49:09.714Z,97626.41
2018-09-11T14:51:38.907Z,97634.00
2018-09-11T14:54:08.549Z,97622.27
2018-09-11T14:56:37.776Z,97624.09
2018-09-11T14:59:09.917Z,97627.28
2018-09-11T15:01:39.087Z,97629.33
2018-09-11T15:04:11.263Z,97624.17
2018-09-11T15:06:42.667Z,97616.94
2018-09-11T15:09:12.413Z,97614.44
2018-09-11T15:11:41.591Z,97615.69
2018-09-11T15:14:11.170Z,97620.93
2018-09-11T15:16:40.400Z,97613.80
2018-09-11T15:19:09.953Z,97613.47
2018-09-11T15:21:39.149Z,97611.16
2018-09-11T15:24:09.162Z,97613.95
2018-09-11T15:26:38.320Z,97613.55
2018-09-11T15:29:08.284Z,97614.81
2018-09-11T15:31:40.278Z,97607.97
2018-09-11T15:34:09.878Z,97607.66
2018-09-11T15:36:39.048Z,97615.22
2018-09-11T15:39:08.643Z,97625.69
2018-09-11T15:41:37.873Z,97613.23
2018-09-11T15:44:07.525Z,97610.15
2018-09-11T15:46:36.629Z,97607.52
2018-09-11T15:49:06.222Z,97611.20
2018-09-11T15:51:35.426Z,97611.20
2018-09-11T15:54:05.022Z,97611.34
2018-09-11T15:56:35.157Z,97605.34
2018-09-11T15:59:04.770Z,97609.59
2018-09-11T16:01:34.019Z,97599.33
2018-09-11T16:04:05.358Z,97595.81
2018-09-11T16:06:34.582Z,97594.03
2018-09-11T16:09:06.876Z,97594.63
2018-09-11T16:11:37.012Z,97590.05
2018-09-11T16:14:08.423Z,97583.95
2018-09-11T16:16:37.618Z,97584.62
2018-09-11T16:19:07.202Z,97577.06
2018-09-11T16:21:36.372Z,97574.83
2018-09-11T16:24:06.053Z,97575.74
2018-09-11T16:26:35.229Z,97574.97
2018-09-11T16:29:05.105Z,97573.69
2018-09-11T16:31:34.317Z,97577.32
2018-09-11T16:34:03.907Z,97573.42
2018-09-11T16:36:33.078Z,97572.02
2018-09-11T16:39:02.428Z,97574.14
2018-09-11T16:41:32.030Z,97572.20
2018-09-11T16:44:01.241Z,97565.52
2018-09-11T16:46:30.470Z,97567.94
2018-09-11T16:48:59.701Z,97564.72
2018-09-11T16:51:28.957Z,97563.28
2018-09-11T16:53:58.140Z,97569.25
2018-09-11T16:56:29.130Z,97567.90
2018-09-11T16:58:58.289Z,97569.55
2018-09-11T17:01:28.415Z,97572.88
2018-09-11T17:03:57.990Z,97567.11
2018-09-11T17:06:27.776Z,97567.14
2018-09-11T17:08:56.998Z,97567.14
2018-09-11T17:11:26.139Z,97567.09
2018-09-11T17:13:55.360Z,97573.53
2018-09-11T17:16:24.561Z,97572.12
2018-09-11T17:18:54.776Z,97572.86
2018-09-11T17:21:26.132Z,97571.03
2018-09-11T17:23:55.296Z,97574.50
2018-09-11T17:26:24.894Z,97574.43
2018-09-11T17:28:54.161Z,97577.83
2018-09-11T17:31:23.905Z,97576.03
2018-09-11T17:33:53.910Z,97582.41
2018-09-11T17:36:25.229Z,97584.98
2018-09-11T17:38:54.459Z,97584.89
2018-09-11T17:41:24.862Z,97585.18
2018-09-11T17:43:54.157Z,97583.75
2018-09-11T17:46:23.516Z,97593.09
2018-09-11T17:48:53.654Z,97592.08
2018-09-11T17:51:22.850Z,97588.95
2018-09-11T17:53:52.113Z,97592.63
2018-09-11T17:56:22.478Z,97598.06
2018-09-11T17:58:51.720Z,97601.79
2018-09-11T18:01:21.497Z,97609.00
2018-09-11T18:03:50.806Z,97617.92
2018-09-11T18:06:20.405Z,97618.27
2018-09-11T18:08:51.439Z,97622.87
2018-09-11T18:11:22.649Z,97627.86
2018-09-11T18:13:51.849Z,97626.38
2018-09-11T18:16:21.139Z,97630.48
2018-09-11T18:18:50.396Z,97637.64
2018-09-11T18:21:20.112Z,97635.76
2018-09-11T18:23:49.352Z,97636.88
2018-09-11T18:26:19.066Z,97646.13
2018-09-11T18:28:48.313Z,97650.57
2018-09-11T18:31:18.000Z,97649.80
2018-09-11T18:33:47.294Z,97647.34
2018-09-11T18:36:17.159Z,97653.53
2018-09-11T18:38:46.522Z,97654.55
2018-09-11T18:41:16.247Z,97664.14
2018-09-11T18:43:45.559Z,97662.06
2018-09-11T18:46:15.351Z,97671.21
2018-09-11T18:48:46.354Z,97669.56
2018-09-11T18:51:16.043Z,97666.28
2018-09-11T18:53:45.408Z,97671.16
2018-09-11T18:56:16.181Z,97672.17
2018-09-11T18:58:45.618Z,97674.50
2018-09-11T19:01:15.273Z,97672.92
2018-09-11T19:03:44.815Z,97676.04
2018-09-11T19:06:14.427Z,97677.53
2018-09-11T19:08:44.013Z,97678.98
2018-09-11T19:11:15.657Z,97683.45
2018-09-11T19:13:46.029Z,97681.44
2018-09-11T19:16:15.931Z,97693.16
2018-09-11T19:18:45.548Z,97686.01
2018-09-11T19:21:16.620Z,97688.70
2018-09-11T19:23:47.029Z,97690.58
2018-09-11T19:26:17.876Z,97689.77
2018-09-11T19:28:47.994Z,97698.42
2018-09-11T19:31:17.846Z,97698.47
2018-09-11T19:33:47.407Z,97696.44
2018-09-11T19:36:17.282Z,97701.22
2018-09-11T19:38:49.531Z,97695.23
2018-09-11T19:41:19.488Z,97696.17
2018-09-11T19:43:49.401Z,97703.92
2018-09-11T19:46:19.308Z,97699.71
2018-09-11T19:48:52.920Z,97705.83
2018-09-11T19:51:22.360Z,97703.33
2018-09-11T19:53:56.705Z,97698.25
2018-09-11T19:56:27.191Z,97708.20
2018-09-11T19:58:56.708Z,97704.38
2018-09-11T20:01:26.310Z,97703.62
2018-09-11T20:03:55.800Z,97698.55
2018-09-11T20:06:25.616Z,97703.36
2018-09-11T20:08:58.283Z,97699.56
2018-09-11T20:11:28.588Z,97699.61
2018-09-11T20:13:58.920Z,97685.14
2018-09-11T20:16:28.259Z,97690.66
2018-09-11T20:18:57.542Z,97696.27
2018-09-11T20:21:27.228Z,97691.56
2018-09-11T20:23:56.559Z,97692.88
2018-09-11T20:26:25.858Z,97694.67
2018-09-11T20:28:55.314Z,97701.19
2018-09-11T20:31:24.731Z,97703.84
2018-09-11T20:33:53.929Z,97706.05
2018-09-11T20:36:23.621Z,97706.12
2018-09-11T20:38:52.883Z,97712.66
2018-09-11T20:41:22.405Z,97711.88
2018-09-11T20:43:51.658Z,97719.20
2018-09-11T20:46:21.251Z,97718.39
2018-09-11T20:48:50.450Z,97714.17
2018-09-11T20:51:19.975Z,97708.61
2018-09-11T20:53:51.239Z,97710.78
2018-09-11T20:56:21.465Z,97713.33
2018-09-11T20:58:52.460Z,97711.66
2018-09-11T21:01:24.977Z,97715.94
2018-09-11T21:03:54.278Z,97715.94
2018-09-11T21:06:23.948Z,97718.55
2018-09-11T21:08:53.313Z,97720.25
2018-09-11T21:11:22.673Z,97718.55
2018-09-11T21:13:54.476Z,97718.58
2018-09-11T21:16:23.646Z,97709.19
2018-09-11T21:18:52.845Z,97718.62
2018-09-11T21:21:23.254Z,97718.66
2018-09-11T21:23:52.678Z,97714.40
2018-09-11T21:26:22.423Z,97715.31
2018-09-11T21:28:51.903Z,97708.50
2018-09-11T21:31:21.512Z,97708.95
2018-09-11T21:33:52.527Z,97712.43
2018-09-11T21:36:22.291Z,97717.16
2018-09-11T21:38:51.450Z,97721.03
2018-09-11T21:41:20.974Z,97726.20
2018-09-11T21:43:50.164Z,97725.81
2018-09-11T21:46:19.924Z,97726.25
2018-09-11T21:48:50.960Z,97724.96
2018-09-11T21:51:20.958Z,97722.84
2018-09-11T21:53:52.169Z,97731.43
2018-09-11T21:56:21.381Z,97730.19
2018-09-11T21:58:52.470Z,97728.47
2018-09-11T22:01:27.146Z,97724.65
2018-09-11T22:03:58.601Z,97722.09
2018-09-11T22:06:28.150Z,97725.95
2018-09-11T22:08:57.415Z,97726.81
2018-09-11T22:11:28.770Z,97726.41
2018-09-11T22:13:57.961Z,97727.25
2018-09-11T22:16:29.217Z,97721.25
2018-09-11T22:18:58.447Z,97724.23
2018-09-11T22:21:31.934Z,97723.41
2018-09-11T22:24:01.439Z,97724.70
2018-09-11T22:26:31.116Z,97727.27
2018-09-11T22:29:00.553Z,97716.58
2018-09-11T22:31:30.301Z,97714.91
2018-09-11T22:33:59.523Z,97714.91
2018-09-11T22:36:28.998Z,97719.22
2018-09-11T22:38:58.211Z,97718.39
2018-09-11T22:41:27.839Z,97713.30
2018-09-11T22:43:57.003Z,97718.88
2018-09-11T22:46:26.680Z,97723.59
2018-09-11T22:48:55.897Z,97719.32
2018-09-11T22:51:25.421Z,97719.32
2018-09-11T22:53:54.578Z,97718.89
2018-09-11T22:56:24.185Z,97720.17
2018-09-11T22:58:55.162Z,97718.48
2018-09-11T23:01:24.708Z,97721.07
2018-09-11T23:03:53.917Z,97718.52
2018-09-11T23:06:23.573Z,97716.80
2018-09-11T23:08:52.781Z,97715.94
2018-09-11T23:11:22.313Z,97719.78
2018-09-11T23:13:51.526Z,97718.94
2018-09-11T23:16:20.695Z,97710.81
2018-09-11T23:18:49.883Z,97711.24
2018-09-11T23:21:19.359Z,97710.84
2018-09-11T23:23:50.289Z,97725.78
2018-09-11T23:26:21.451Z,97719.80
2018-09-11T23:28:50.651Z,97713.39
2018-09-11T23:31:20.274Z,97708.25
2018-09-11T23:33:49.501Z,97712.53
2018-09-11T23:36:20.996Z,97717.63
2018-09-11T23:38:50.142Z,97713.80
2018-09-11T23:41:19.719Z,97715.94
2018-09-11T23:43:49.149Z,97715.94
2018-09-11T23:46:18.707Z,97715.08
2018-09-11T23:48:47.864Z,97714.22
2018-09-11T23:51:17.429Z,97718.52
2018-09-11T23:53:46.587Z,97712.52
2018-09-11T23:56:17.880Z,97715.95
2018-09-11T23:58:47.177Z,97711.66
